Terminal Aerodrome Forecast
Issued by NWS

Home | Current Version | Previous Version | Text Only | Print | Product List | Glossary On
Versions: 1 2 3 4 5 6 7 8 9 10 11 12 13 14 15 16 17 18 19 20 21 22 23 24
000
FTUS43 KGLD 261755
TAFMCK
TAF
KMCK 261755Z 2618/2718 02009KT P6SM SKC
     FM270000 15010KT P6SM SCT050 BKN200
     FM270200 10010KT P6SM SCT050 BKN200
     FM270300 09010KT P6SM -SHRA VCTS OVC090CB
     FM270600 07010KT P6SM VCTS OVC080CB
     FM271000 05008KT P6SM VCTS BKN030CB
     FM271200 36006KT P6SM BKN015=

USA.gov is the U.S. government's official web portal to all federal, state and local government web resources and services.